Details From EBBR - Brussels Airport
To EGNM - Leeds Bradford
Flight Number -
Tags Standard
Created
Modified
Stats Distance 328 nm / 607 km
Max Altitude 3,880 ft / 1,183 m
Waypoints 11
Social Downloads 14
Likes 0
Share

Download

Looking for another format? Having issues loading an existing format? Contact us
Advertisement - Login to hide

Notes

A/C DHC8-400. Dep.rwy25R - Arr,rwy32

Route

+50.900_+004.484 GRBIJ HELEN PEPEL GIVPO +53.651_+001.406 +53.655_+001.391 +53.658_+001.376 +53.730_-001.148 +53.641_-001.314 +53.740_-001.465

ID Type Via Altitude (ft/m) Position (lat/lon) Dist (leg/tot) Name
O +50.900_+004.484 LATLON - 0 / 0 50.90000 / 4.48400 - / 0 nm
GRBIJ FIX - 0 / 0 50.88000 / 4.25333 8 / 8 nm
HELEN FIX - 0 / 0 51.23576 / 3.87241 25 / 34 nm
PEPEL FIX - 0 / 0 52.58528 / 3.41444 82 / 117 nm
GIVPO FIX - 0 / 0 53.28611 / 2.86917 46 / 163 nm
+53.651_+001.406 LATLON - 3,880 / 1,183 53.65122 / 1.40628 56 / 220 nm
+53.655_+001.391 LATLON - 3,880 / 1,183 53.65490 / 1.39072 0 / 221 nm
+53.658_+001.376 LATLON - 3,880 / 1,183 53.65841 / 1.37579 0 / 221 nm
+53.730_-001.148 LATLON - 3,880 / 1,183 53.73000 / -1.14800 89 / 311 nm
+53.641_-001.314 LATLON - 3,880 / 1,183 53.64098 / -1.31410 7 / 319 nm
O +53.740_-001.465 LATLON - 3,880 / 1,183 53.73978 / -1.46469 7 / 327 nm

Altitude Profile

Advertisement - Login to hide

Weather


0- 5 10 15 20 25 30 35+ Temperature / °C

Clouds and Precipitation
Forecast for 2021-06-15 18:00 UTC. Updated 2 hours ago

Ground ~20,000 ft ~40,000 ft Winds

EBBR

Details ICAO EBBR (BRU)
Name Brussels
Region Belgium
Timezone Europe/Brussels (UTC+2.0)
Stats Elevation 184 ft / 56 m (AMSL)
Location 50.899900° 4.492770°
Runways 3
Magnetic Variation 1.604° E

METAR

EBBR 151750Z 04004KT CAVOK 23/16 Q1019 NOSIG

Decode

TAF

TAF EBBR 151702Z 1518/1624 06005KT 9999 FEW045= TAF EDDF 151700Z 1518/1624 03009KT CAVOK BECMG 1522/1524 04004KT BECMG 1610/1612 17006KT BECMG 1618/1620 VRB03KT

Decode

Departure Runways

ID Width Length Bearing (true/mag) Surface Threshold Overrun Markings Lighting
01 164 ft / 50 m 9,810 ft / 2,990 m 14.44° / 12.84° ASPHALT 157 ft / 48 m 0 ft / 0 m PREC-APP CENTERLINE EDGE THRESHOLD ALSF-II TDZ REIL-OMNI
07L 148 ft / 45 m 11,917 ft / 3,632 m 65.37° / 63.77° ASPHALT 843 ft / 257 m 72 ft / 22 m PREC-APP CENTERLINE EDGE THRESHOLD TDZ REIL-OMNI
07R 148 ft / 45 m 10,522 ft / 3,207 m 69.88° / 68.27° ASPHALT 407 ft / 124 m 0 ft / 0 m PREC-APP CENTERLINE EDGE THRESHOLD REIL-OMNI
19 164 ft / 50 m 9,810 ft / 2,990 m 194.45° / 192.84° ASPHALT 722 ft / 220 m 43 ft / 13 m PREC-APP CENTERLINE EDGE THRESHOLD ALSF-I TDZ REIL-OMNI
25L 148 ft / 45 m 10,522 ft / 3,207 m 249.91° / 248.30° ASPHALT 0 ft / 0 m 13 ft / 4 m PREC-APP CENTERLINE EDGE THRESHOLD ALSF-II TDZ REIL-OMNI
25R 148 ft / 45 m 11,917 ft / 3,632 m 245.41° / 243.81° ASPHALT 981 ft / 299 m 0 ft / 0 m PREC-APP CENTERLINE EDGE THRESHOLD ALSF-II TDZ REIL-OMNI

EGNM

Details ICAO EGNM (LBA)
Name Leeds Bradford
Region United Kingdom
Timezone Europe/London (UTC+1.0)
Stats Elevation 681 ft / 208 m (AMSL)
Location 53.866000° -1.660770°
Runways 1
Magnetic Variation 0.745° W

METAR

EGNM 151750Z 20008KT 160V220 CAVOK 20/07 Q1017

Decode

TAF

TAF EGNM 151655Z 1518/1618 20008KT 9999 FEW045 BECMG 1615/1618 27010KT

Decode

Destination Runways

ID Width Length Bearing (true/mag) Surface Threshold Overrun Markings Lighting
14 151 ft / 46 m 7,390 ft / 2,252 m 137.80° / 138.54° CONCRETE 1,027 ft / 313 m 39 ft / 12 m PREC-APP CENTERLINE EDGE THRESHOLD CALVERT REIL-OMNI
32 151 ft / 46 m 7,390 ft / 2,252 m 317.81° / 318.56° CONCRETE 899 ft / 274 m 43 ft / 13 m PREC-APP CENTERLINE EDGE THRESHOLD CALVERT-ILS TDZ REIL-OMNI

Approach Navaids

Runway Type Ident Frequency Range Bearing (true/mag) Slope Elevation
14 LOC-ILS ILBF 110.90 MHz 18 nm / 33 km 137.81° / 138.55 ° - 681 ft / 208 m (AMSL)
14 DME ILBF 110.90 MHz 18 nm / 33 km - - 681 ft / 208 m (AMSL)
14 GS ILBF 110.90 MHz 10 nm / 19 km 137.81° / 138.55 ° 3.50° 681 ft / 208 m (AMSL)
32 GS ILF 110.90 MHz 10 nm / 19 km 317.81° / 318.55 ° 3.00° 681 ft / 208 m (AMSL)
32 DME ILF 110.90 MHz 18 nm / 33 km - - 687 ft / 209 m (AMSL)
32 LOC-ILS ILF 110.90 MHz 18 nm / 33 km 317.81° / 318.55 ° - 681 ft / 208 m (AMSL)

Popular Alternatives